createdAt,value
2019-01-26T00:00:29.884Z,-1.3
2019-01-26T00:01:37.090Z,-1.3
2019-01-26T00:02:44.015Z,-1.3
2019-01-26T00:03:51.214Z,-1.2
2019-01-26T00:04:58.140Z,-1.3
2019-01-26T00:06:05.063Z,-1.3
2019-01-26T00:07:12.255Z,-1.3
2019-01-26T00:08:19.455Z,-1.2
2019-01-26T00:09:26.388Z,-1.3
2019-01-26T00:10:33.583Z,-1.3
2019-01-26T00:11:40.503Z,-1.3
2019-01-26T00:12:47.417Z,-1.3
2019-01-26T00:13:54.622Z,-1.3
2019-01-26T00:15:01.821Z,-1.2
2019-01-26T00:16:08.748Z,-1.2
2019-01-26T00:17:15.941Z,-1.3
2019-01-26T00:18:22.600Z,-1.3
2019-01-26T00:19:29.818Z,-1.3
2019-01-26T00:20:37.199Z,-1.2
2019-01-26T00:21:44.396Z,-1.3
2019-01-26T00:22:51.605Z,-1.3
2019-01-26T00:23:58.808Z,-1.3
2019-01-26T00:25:06.008Z,-1.3
2019-01-26T00:26:13.209Z,-1.2
2019-01-26T00:27:20.409Z,-1.2
2019-01-26T00:28:27.329Z,-1.2
2019-01-26T00:29:34.534Z,-1.2
2019-01-26T00:30:41.464Z,-1.2
2019-01-26T00:31:48.663Z,-1.2
2019-01-26T00:32:55.877Z,-1.2
2019-01-26T00:34:03.076Z,-1.2
2019-01-26T00:35:09.997Z,-1.2
2019-01-26T00:36:17.187Z,-1.2
2019-01-26T00:37:24.399Z,-1.2
2019-01-26T00:38:31.597Z,-1.2
2019-01-26T00:39:38.807Z,-1.2
2019-01-26T00:40:45.731Z,-1.3
2019-01-26T00:41:52.940Z,-1.2
2019-01-26T00:43:00.145Z,-1.2
2019-01-26T00:44:07.338Z,-1.2
2019-01-26T00:45:14.275Z,-1.2
2019-01-26T00:46:28.208Z,-1.2
2019-01-26T00:47:35.401Z,-1.2
2019-01-26T00:48:42.063Z,-1.2
2019-01-26T00:49:49.004Z,-1.2
2019-01-26T00:50:56.200Z,-1.2
2019-01-26T00:52:03.398Z,-1.2
2019-01-26T00:53:10.597Z,-1.2
2019-01-26T00:54:17.525Z,-1.2
2019-01-26T00:55:24.729Z,-1.2
2019-01-26T00:56:31.933Z,-1.2
2019-01-26T00:57:39.136Z,-1.2
2019-01-26T00:58:46.343Z,-1.2
2019-01-26T00:59:53.545Z,-1.2
2019-01-26T01:01:00.749Z,-1.2
2019-01-26T01:02:07.955Z,-1.2
2019-01-26T01:03:14.882Z,-1.2
2019-01-26T01:04:22.075Z,-1.2
2019-01-26T01:05:29.281Z,-1.2
2019-01-26T01:06:36.213Z,-1.1
2019-01-26T01:07:43.499Z,-1.2
2019-01-26T01:08:50.731Z,-1.1
2019-01-26T01:09:57.660Z,-1.1
2019-01-26T01:11:04.856Z,-1.1
2019-01-26T01:12:12.059Z,-1.1
2019-01-26T01:13:19.257Z,-1.1
2019-01-26T01:14:26.476Z,-1.1
2019-01-26T01:15:33.398Z,-1.1
2019-01-26T01:16:40.323Z,-1.1
2019-01-26T01:17:47.246Z,-1.1
2019-01-26T01:18:54.224Z,-1.1
2019-01-26T01:20:01.599Z,-1.1
2019-01-26T01:21:08.811Z,-1.1
2019-01-26T01:22:16.022Z,-1.1
2019-01-26T01:23:22.945Z,-1.1
2019-01-26T01:24:30.155Z,-1.1
2019-01-26T01:25:37.360Z,-1.1
2019-01-26T01:26:44.563Z,-1
2019-01-26T01:27:51.520Z,-1
2019-01-26T01:28:58.713Z,-1
2019-01-26T01:30:05.909Z,-1
2019-01-26T01:31:13.110Z,-1
2019-01-26T01:32:20.031Z,-1
2019-01-26T01:33:27.233Z,-1
2019-01-26T01:34:34.447Z,-0.9
2019-01-26T01:35:41.651Z,-1
2019-01-26T01:36:48.578Z,-1
2019-01-26T01:37:55.773Z,-1
2019-01-26T01:39:02.971Z,-1
2019-01-26T01:40:10.177Z,-0.9
2019-01-26T01:41:17.380Z,-0.9
2019-01-26T01:42:24.299Z,-0.9
2019-01-26T01:43:31.492Z,-0.9
2019-01-26T01:44:38.686Z,-0.9
2019-01-26T01:45:45.898Z,-0.9
2019-01-26T01:46:53.114Z,-0.9
2019-01-26T01:48:00.060Z,-0.9
2019-01-26T01:49:07.283Z,-0.9
2019-01-26T01:50:14.481Z,-0.9
2019-01-26T01:51:21.686Z,-0.9
2019-01-26T01:52:28.619Z,-0.9
2019-01-26T01:53:35.874Z,-0.9
2019-01-26T01:54:43.077Z,-0.9
2019-01-26T01:55:50.277Z,-0.9
2019-01-26T01:56:57.488Z,-0.9
2019-01-26T01:58:04.692Z,-0.9
2019-01-26T01:59:11.891Z,-0.9
2019-01-26T02:00:18.552Z,-0.8
2019-01-26T02:01:25.756Z,-0.8
2019-01-26T02:02:32.971Z,-0.8
2019-01-26T02:03:39.894Z,-0.8
2019-01-26T02:04:46.822Z,-0.8
2019-01-26T02:05:54.014Z,-0.8
2019-01-26T02:07:01.230Z,-0.8
2019-01-26T02:08:08.425Z,-0.8
2019-01-26T02:09:15.067Z,-0.8
2019-01-26T02:10:21.713Z,-0.8
2019-01-26T02:11:28.914Z,-0.8
2019-01-26T02:12:35.843Z,-0.8
2019-01-26T02:13:43.042Z,-0.8
2019-01-26T02:14:49.992Z,-0.8
2019-01-26T02:15:57.189Z,-0.8
2019-01-26T02:17:04.123Z,-0.8
2019-01-26T02:18:11.342Z,-0.8
2019-01-26T02:19:18.535Z,-0.8
2019-01-26T02:20:25.743Z,-0.7
2019-01-26T02:21:32.944Z,-0.8
2019-01-26T02:22:40.153Z,-0.7
2019-01-26T02:23:47.360Z,-0.8
2019-01-26T02:24:54.552Z,-0.8
2019-01-26T02:26:01.893Z,-0.7
2019-01-26T02:27:09.061Z,-0.7
2019-01-26T02:28:16.270Z,-0.7
2019-01-26T02:29:23.193Z,-0.7
2019-01-26T02:30:30.402Z,-0.7
2019-01-26T02:31:37.321Z,-0.7
2019-01-26T02:32:44.518Z,-0.7
2019-01-26T02:33:51.720Z,-0.7
2019-01-26T02:34:59.219Z,-0.7
2019-01-26T02:36:06.291Z,-0.7
2019-01-26T02:37:13.515Z,-0.6
2019-01-26T02:38:20.754Z,-0.6
2019-01-26T02:39:27.698Z,-0.6
2019-01-26T02:40:34.620Z,-0.6
2019-01-26T02:41:42.057Z,-0.6
2019-01-26T02:42:49.260Z,-0.6
2019-01-26T02:43:56.678Z,-0.6
2019-01-26T02:45:03.609Z,-0.6
2019-01-26T02:46:10.810Z,-0.6
2019-01-26T02:47:18.009Z,-0.5
2019-01-26T02:48:25.210Z,-0.5
2019-01-26T02:49:32.420Z,-0.5
2019-01-26T02:50:39.346Z,-0.5
2019-01-26T02:51:46.551Z,-0.5
2019-01-26T02:52:53.756Z,-0.5
2019-01-26T02:54:00.961Z,-0.5
2019-01-26T02:55:08.185Z,-0.5
2019-01-26T02:56:15.381Z,-0.5
2019-01-26T02:57:22.586Z,-0.5
2019-01-26T02:58:29.787Z,-0.5
2019-01-26T02:59:37.006Z,-0.4
2019-01-26T03:00:44.211Z,-0.5
2019-01-26T03:01:51.408Z,-0.4
2019-01-26T03:02:58.614Z,-0.5
2019-01-26T03:04:05.296Z,-0.4
2019-01-26T03:05:12.494Z,-0.4
2019-01-26T03:06:19.701Z,-0.4
2019-01-26T03:07:26.892Z,-0.4
2019-01-26T03:08:34.096Z,-0.4
2019-01-26T03:09:41.299Z,-0.4
2019-01-26T03:10:48.502Z,-0.4
2019-01-26T03:11:55.705Z,-0.4
2019-01-26T03:13:02.920Z,-0.4
2019-01-26T03:14:09.844Z,-0.4
2019-01-26T03:15:17.047Z,-0.3
2019-01-26T03:16:23.686Z,-0.3
2019-01-26T03:17:30.880Z,-0.3
2019-01-26T03:18:37.825Z,-0.3
2019-01-26T03:19:45.030Z,-0.3
2019-01-26T03:20:51.965Z,-0.3
2019-01-26T03:21:59.175Z,-0.3
2019-01-26T03:23:06.396Z,-0.3
2019-01-26T03:24:13.322Z,-0.3
2019-01-26T03:25:20.528Z,-0.3
2019-01-26T03:26:27.457Z,-0.3
2019-01-26T03:27:34.396Z,-0.3
2019-01-26T03:28:41.605Z,-0.2
2019-01-26T03:29:48.809Z,-0.2
2019-01-26T03:30:56.028Z,-0.2
2019-01-26T03:32:03.235Z,-0.2
2019-01-26T03:33:10.492Z,-0.2
2019-01-26T03:34:17.161Z,-0.2
2019-01-26T03:35:24.346Z,-0.2
2019-01-26T03:36:31.541Z,-0.2
2019-01-26T03:37:38.471Z,-0.2
2019-01-26T03:38:45.704Z,-0.2
2019-01-26T03:39:52.894Z,-0.2
2019-01-26T03:41:00.105Z,-0.2
2019-01-26T03:42:07.323Z,-0.2
2019-01-26T03:43:14.530Z,-0.2
2019-01-26T03:44:21.467Z,-0.1
2019-01-26T03:45:28.682Z,-0.1
2019-01-26T03:46:35.600Z,-0.1
2019-01-26T03:47:42.787Z,-0.1
2019-01-26T03:48:49.709Z,-0.1
2019-01-26T03:49:56.633Z,-0.1
2019-01-26T03:51:03.830Z,-0.1
2019-01-26T03:52:10.751Z,-0.1
2019-01-26T03:53:17.979Z,-0.1
2019-01-26T03:54:25.186Z,-0.1
2019-01-26T03:55:32.384Z,-0.1
2019-01-26T03:56:39.589Z,-0.1
2019-01-26T03:57:46.791Z,-0.1
2019-01-26T03:58:53.719Z,-0.1
2019-01-26T04:00:00.982Z,-0.1
2019-01-26T04:01:08.191Z,0
2019-01-26T04:02:15.394Z,-0.1
2019-01-26T04:03:22.605Z,0
2019-01-26T04:04:29.562Z,-0.1
2019-01-26T04:05:36.769Z,0
2019-01-26T04:06:44.202Z,0
2019-01-26T04:07:51.130Z,0
2019-01-26T04:08:58.334Z,0
2019-01-26T04:10:05.541Z,0
2019-01-26T04:11:12.742Z,0
2019-01-26T04:12:19.934Z,0
2019-01-26T04:13:27.140Z,0
2019-01-26T04:14:34.337Z,0
2019-01-26T04:15:41.558Z,0.1
2019-01-26T04:16:48.757Z,0
2019-01-26T04:17:55.964Z,0
2019-01-26T04:19:03.167Z,0
2019-01-26T04:20:10.073Z,0.1
2019-01-26T04:21:17.003Z,0.1
2019-01-26T04:22:23.933Z,0.1
2019-01-26T04:23:31.137Z,0.1
2019-01-26T04:24:38.342Z,0.1
2019-01-26T04:25:45.544Z,0.1
2019-01-26T04:26:52.743Z,0.1
2019-01-26T04:27:59.949Z,0.1
2019-01-26T04:29:07.175Z,0.1
2019-01-26T04:30:14.384Z,0.2
2019-01-26T04:31:21.324Z,0.1
2019-01-26T04:32:28.534Z,0.2
2019-01-26T04:33:35.727Z,0.2
2019-01-26T04:34:42.918Z,0.2
2019-01-26T04:35:50.118Z,0.2
2019-01-26T04:36:57.337Z,0.2
2019-01-26T04:38:04.533Z,0.2
2019-01-26T04:39:11.723Z,0.2
2019-01-26T04:40:18.922Z,0.2
2019-01-26T04:41:25.845Z,0.2
2019-01-26T04:42:33.051Z,0.2
2019-01-26T04:43:40.249Z,0.2
2019-01-26T04:44:47.450Z,0.2
2019-01-26T04:45:54.374Z,0.2
2019-01-26T04:47:01.295Z,0.2
2019-01-26T04:48:08.490Z,0.2
2019-01-26T04:49:15.691Z,0.3
2019-01-26T04:50:22.619Z,0.3
2019-01-26T04:51:29.830Z,0.3
2019-01-26T04:52:36.763Z,0.3
2019-01-26T04:53:43.693Z,0.3
2019-01-26T04:54:50.634Z,0.3
2019-01-26T04:55:57.554Z,0.3
2019-01-26T04:57:04.476Z,0.3
2019-01-26T04:58:11.386Z,0.3
2019-01-26T04:59:18.588Z,0.3
2019-01-26T05:00:25.794Z,0.4
2019-01-26T05:01:32.999Z,0.3
2019-01-26T05:02:40.197Z,0.4
2019-01-26T05:03:47.434Z,0.3
2019-01-26T05:04:54.638Z,0.4
2019-01-26T05:06:01.833Z,0.4
2019-01-26T05:07:09.044Z,0.4
2019-01-26T05:08:15.969Z,0.4
2019-01-26T05:09:23.179Z,0.4
2019-01-26T05:10:30.113Z,0.4
2019-01-26T05:11:36.768Z,0.4
2019-01-26T05:12:43.966Z,0.4
2019-01-26T05:13:51.164Z,0.5
2019-01-26T05:14:58.368Z,0.5
2019-01-26T05:16:05.563Z,0.4
2019-01-26T05:17:12.775Z,0.5
2019-01-26T05:18:19.978Z,0.5
2019-01-26T05:19:27.174Z,0.5
2019-01-26T05:20:34.634Z,0.5
2019-01-26T05:21:41.560Z,0.5
2019-01-26T05:22:48.490Z,0.5
2019-01-26T05:23:55.405Z,0.5
2019-01-26T05:25:02.619Z,0.6
2019-01-26T05:26:09.843Z,0.6
2019-01-26T05:27:17.032Z,0.5
2019-01-26T05:28:23.961Z,0.6
2019-01-26T05:29:30.896Z,0.6
2019-01-26T05:30:37.819Z,0.6
2019-01-26T05:31:44.746Z,0.6
2019-01-26T05:32:51.674Z,0.6
2019-01-26T05:33:58.886Z,0.6
2019-01-26T05:35:06.104Z,0.7
2019-01-26T05:36:13.312Z,0.6
2019-01-26T05:37:20.511Z,0.7
2019-01-26T05:38:27.447Z,0.7
2019-01-26T05:39:34.362Z,0.7
2019-01-26T05:40:41.569Z,0.7
2019-01-26T05:41:48.760Z,0.7
2019-01-26T05:42:56.045Z,0.7
2019-01-26T05:44:03.249Z,0.6
2019-01-26T05:45:10.450Z,0.7
2019-01-26T05:46:17.661Z,0.7
2019-01-26T05:47:24.865Z,0.7
2019-01-26T05:48:31.808Z,0.7
2019-01-26T05:49:38.735Z,0.7
2019-01-26T05:50:45.937Z,0.7
2019-01-26T05:51:53.145Z,0.7
2019-01-26T05:53:00.353Z,0.7
2019-01-26T05:54:07.552Z,0.7
2019-01-26T05:55:14.470Z,0.7
2019-01-26T05:56:21.466Z,0.7
2019-01-26T05:57:28.383Z,0.7
2019-01-26T05:58:35.589Z,0.7
2019-01-26T05:59:42.504Z,0.7
2019-01-26T06:00:49.147Z,0.7
2019-01-26T06:01:56.346Z,0.7
2019-01-26T06:03:03.559Z,0.7
2019-01-26T06:04:10.774Z,0.7
2019-01-26T06:05:17.717Z,0.7
2019-01-26T06:06:24.939Z,0.7
2019-01-26T06:07:32.146Z,0.7
2019-01-26T06:08:38.796Z,0.7
2019-01-26T06:09:45.990Z,0.7
2019-01-26T06:10:52.922Z,0.7
2019-01-26T06:12:00.126Z,0.7
2019-01-26T06:13:07.321Z,0.7
2019-01-26T06:14:14.246Z,0.7
2019-01-26T06:15:21.469Z,0.7
2019-01-26T06:16:28.668Z,0.8
2019-01-26T06:17:35.864Z,0.8
2019-01-26T06:18:43.076Z,0.7
2019-01-26T06:19:50.283Z,0.7
2019-01-26T06:20:57.217Z,0.7
2019-01-26T06:22:04.419Z,0.8
2019-01-26T06:23:11.618Z,0.7
2019-01-26T06:24:18.836Z,0.7
2019-01-26T06:25:26.041Z,0.7
2019-01-26T06:26:33.247Z,0.7
2019-01-26T06:27:40.452Z,0.8
2019-01-26T06:28:47.390Z,0.7
2019-01-26T06:29:54.591Z,0.8
2019-01-26T06:31:01.799Z,0.8
2019-01-26T06:32:09.005Z,0.7
2019-01-26T06:33:16.210Z,0.7
2019-01-26T06:34:23.413Z,0.7
2019-01-26T06:35:30.628Z,0.7
2019-01-26T06:36:37.551Z,0.7
2019-01-26T06:37:44.758Z,0.7
2019-01-26T06:38:51.694Z,0.7
2019-01-26T06:40:00.270Z,0.8
2019-01-26T06:41:07.481Z,0.7
2019-01-26T06:42:14.675Z,0.8
2019-01-26T06:43:21.893Z,0.7
2019-01-26T06:44:29.100Z,0.8
2019-01-26T06:45:36.307Z,0.8
2019-01-26T06:46:43.229Z,0.8
2019-01-26T06:47:50.146Z,0.8
2019-01-26T06:48:57.075Z,0.8
2019-01-26T06:50:04.285Z,0.7
2019-01-26T06:51:11.488Z,0.8
2019-01-26T06:52:18.699Z,0.8
2019-01-26T06:53:25.942Z,0.8
2019-01-26T06:54:33.143Z,0.8
2019-01-26T06:55:40.374Z,0.8
2019-01-26T06:56:47.570Z,0.8
2019-01-26T06:57:54.974Z,0.8
2019-01-26T06:59:01.902Z,0.8
2019-01-26T07:00:09.102Z,0.8
2019-01-26T07:01:16.311Z,0.8
2019-01-26T07:02:23.513Z,0.9
2019-01-26T07:03:30.723Z,0.8
2019-01-26T07:04:37.673Z,0.9
2019-01-26T07:05:44.890Z,0.9
2019-01-26T07:06:52.083Z,0.8
2019-01-26T07:07:59.286Z,0.9
2019-01-26T07:09:06.492Z,0.9
2019-01-26T07:10:13.695Z,0.9
2019-01-26T07:11:20.613Z,0.9
2019-01-26T07:12:27.812Z,0.9
2019-01-26T07:13:34.750Z,0.9
2019-01-26T07:14:41.969Z,0.9
2019-01-26T07:15:48.922Z,0.9
2019-01-26T07:16:56.124Z,0.9
2019-01-26T07:18:09.917Z,1
2019-01-26T07:19:16.845Z,1
2019-01-26T07:20:24.074Z,1
2019-01-26T07:21:31.274Z,1
2019-01-26T07:22:38.228Z,1
2019-01-26T07:23:45.433Z,1
2019-01-26T07:24:52.866Z,1
2019-01-26T07:26:00.066Z,1
2019-01-26T07:27:07.294Z,1
2019-01-26T07:28:14.516Z,1
2019-01-26T07:29:21.736Z,1
2019-01-26T07:30:28.943Z,1
2019-01-26T07:31:36.151Z,1
2019-01-26T07:32:43.087Z,1
2019-01-26T07:33:50.297Z,1
2019-01-26T07:34:57.491Z,1
2019-01-26T07:36:04.689Z,1
2019-01-26T07:37:11.631Z,1
2019-01-26T07:38:18.834Z,1
2019-01-26T07:39:26.037Z,1
2019-01-26T07:40:32.979Z,1
2019-01-26T07:41:40.190Z,1.1
2019-01-26T07:42:47.417Z,1
2019-01-26T07:43:54.656Z,1
2019-01-26T07:45:01.027Z,1
2019-01-26T07:46:08.230Z,1
2019-01-26T07:47:15.152Z,1
2019-01-26T07:48:22.356Z,1
2019-01-26T07:49:29.281Z,1
2019-01-26T07:50:36.487Z,1.1
2019-01-26T07:51:43.706Z,1.1
2019-01-26T07:52:50.892Z,1.1
2019-01-26T07:53:58.089Z,1.1
2019-01-26T07:55:05.037Z,1.1
2019-01-26T07:56:12.246Z,1.1
2019-01-26T07:57:19.173Z,1.1
2019-01-26T07:58:26.403Z,1.1
2019-01-26T07:59:33.603Z,1.1
2019-01-26T08:00:40.794Z,1.1
2019-01-26T08:01:47.997Z,1.2
2019-01-26T08:02:55.210Z,1.2
2019-01-26T08:04:02.410Z,1.1
2019-01-26T08:05:09.632Z,1.1
2019-01-26T08:06:16.561Z,1.2
2019-01-26T08:07:23.794Z,1.2
2019-01-26T08:08:30.726Z,1.2
2019-01-26T08:09:37.928Z,1.2
2019-01-26T08:10:45.131Z,1.2
2019-01-26T08:11:52.343Z,1.2
2019-01-26T08:12:59.552Z,1.2
2019-01-26T08:14:06.476Z,1.2
2019-01-26T08:15:13.678Z,1.2
2019-01-26T08:16:20.602Z,1.2
2019-01-26T08:17:27.535Z,1.2
2019-01-26T08:18:34.745Z,1.3
2019-01-26T08:19:41.672Z,1.3
2019-01-26T08:20:48.879Z,1.3
2019-01-26T08:21:56.083Z,1.2
2019-01-26T08:23:03.317Z,1.3
2019-01-26T08:24:10.521Z,1.3
2019-01-26T08:25:17.733Z,1.3
2019-01-26T08:26:24.661Z,1.3
2019-01-26T08:27:31.590Z,1.3
2019-01-26T08:28:38.799Z,1.3
2019-01-26T08:29:46.007Z,1.3
2019-01-26T08:30:53.219Z,1.3
2019-01-26T08:32:00.432Z,1.3
2019-01-26T08:33:07.633Z,1.3
2019-01-26T08:34:14.841Z,1.3
2019-01-26T08:35:22.050Z,1.4
2019-01-26T08:36:29.307Z,1.4
2019-01-26T08:37:36.247Z,1.4
2019-01-26T08:38:43.474Z,1.4
2019-01-26T08:39:50.399Z,1.4
2019-01-26T08:40:57.596Z,1.4
2019-01-26T08:42:04.797Z,1.4
2019-01-26T08:43:11.722Z,1.4
2019-01-26T08:44:18.933Z,1.5
2019-01-26T08:45:26.116Z,1.5
2019-01-26T08:46:33.322Z,1.5
2019-01-26T08:47:40.267Z,1.5
2019-01-26T08:48:47.472Z,1.5
2019-01-26T08:49:54.415Z,1.5
2019-01-26T08:51:01.356Z,1.5
2019-01-26T08:52:08.567Z,1.5
2019-01-26T08:53:15.214Z,1.5
2019-01-26T08:54:22.414Z,1.5
2019-01-26T08:55:29.339Z,1.5
2019-01-26T08:56:36.269Z,1.5
2019-01-26T08:57:43.219Z,1.5
2019-01-26T08:58:50.154Z,1.5
2019-01-26T08:59:57.359Z,1.5
2019-01-26T09:01:04.301Z,1.6
2019-01-26T09:02:11.512Z,1.6
2019-01-26T09:03:18.715Z,1.6
2019-01-26T09:04:25.923Z,1.6
2019-01-26T09:05:32.848Z,1.7
2019-01-26T09:06:40.052Z,1.7
2019-01-26T09:07:47.253Z,1.7
2019-01-26T09:08:54.184Z,1.7
2019-01-26T09:10:01.119Z,1.7
2019-01-26T09:11:08.325Z,1.8
2019-01-26T09:12:15.249Z,1.8
2019-01-26T09:13:22.174Z,1.8
2019-01-26T09:14:29.389Z,1.8
2019-01-26T09:15:36.584Z,1.8
2019-01-26T09:16:43.781Z,1.9
2019-01-26T09:17:50.976Z,1.9
2019-01-26T09:18:58.196Z,1.9
2019-01-26T09:20:05.413Z,1.9
2019-01-26T09:21:12.627Z,1.9
2019-01-26T09:22:19.839Z,1.9
2019-01-26T09:23:27.036Z,1.9
2019-01-26T09:24:33.960Z,1.9
2019-01-26T09:25:40.892Z,1.9
2019-01-26T09:26:48.105Z,1.9
2019-01-26T09:27:55.342Z,1.9
2019-01-26T09:29:02.550Z,1.9
2019-01-26T09:30:09.773Z,2
2019-01-26T09:31:16.692Z,2
2019-01-26T09:32:23.895Z,2
2019-01-26T09:33:30.815Z,2
2019-01-26T09:34:38.019Z,2.1
2019-01-26T09:35:45.213Z,2.1
2019-01-26T09:36:52.418Z,2.1
2019-01-26T09:37:59.621Z,2.1
2019-01-26T09:39:06.819Z,2
2019-01-26T09:40:14.028Z,2.1
2019-01-26T09:41:20.972Z,2.1
2019-01-26T09:42:27.915Z,2.1
2019-01-26T09:43:35.134Z,2.1
2019-01-26T09:44:42.331Z,2
2019-01-26T09:45:48.973Z,2
2019-01-26T09:46:56.173Z,2
2019-01-26T09:48:03.095Z,2
2019-01-26T09:49:10.305Z,2
2019-01-26T09:50:17.520Z,2
2019-01-26T09:51:24.731Z,2
2019-01-26T09:52:31.950Z,2
2019-01-26T09:53:38.904Z,2
2019-01-26T09:54:45.851Z,2
2019-01-26T09:55:53.048Z,2.1
2019-01-26T09:57:00.254Z,2.1
2019-01-26T09:58:07.454Z,2.1
2019-01-26T09:59:14.658Z,2.1
2019-01-26T10:00:21.865Z,2.1
2019-01-26T10:01:28.793Z,2.1
2019-01-26T10:02:35.722Z,2.2
2019-01-26T10:03:42.923Z,2.2
2019-01-26T10:04:50.135Z,2.1
2019-01-26T10:05:57.340Z,2.2
2019-01-26T10:07:04.547Z,2.2
2019-01-26T10:08:11.502Z,2.3
2019-01-26T10:09:18.700Z,2.3
2019-01-26T10:10:25.897Z,2.2
2019-01-26T10:11:32.850Z,2.3
2019-01-26T10:12:40.059Z,2.2
2019-01-26T10:13:47.264Z,2.3
2019-01-26T10:14:54.476Z,2.3
2019-01-26T10:16:01.673Z,2.2
2019-01-26T10:17:08.879Z,2.3
2019-01-26T10:18:16.095Z,2.3
2019-01-26T10:19:23.324Z,2.3
2019-01-26T10:20:30.560Z,2.3
2019-01-26T10:21:37.479Z,2.3
2019-01-26T10:22:44.413Z,2.3
2019-01-26T10:23:51.616Z,2.4
2019-01-26T10:24:58.825Z,2.4
2019-01-26T10:26:06.032Z,2.4
2019-01-26T10:27:13.237Z,2.4
2019-01-26T10:28:20.197Z,2.3
2019-01-26T10:29:27.404Z,2.4
2019-01-26T10:30:34.340Z,2.4
2019-01-26T10:31:41.278Z,2.4
2019-01-26T10:32:48.499Z,2.3
2019-01-26T10:33:55.708Z,2.4
2019-01-26T10:35:02.635Z,2.4
2019-01-26T10:36:09.590Z,2.4
2019-01-26T10:37:16.793Z,2.4
2019-01-26T10:38:23.725Z,2.4
2019-01-26T10:39:30.648Z,2.4
2019-01-26T10:40:37.873Z,2.4
2019-01-26T10:41:44.807Z,2.4
2019-01-26T10:42:52.009Z,2.4
2019-01-26T10:43:59.210Z,2.5
2019-01-26T10:45:06.156Z,2.4
2019-01-26T10:46:13.085Z,2.5
2019-01-26T10:47:20.020Z,2.5
2019-01-26T10:48:26.943Z,2.6
2019-01-26T10:49:34.141Z,2.6
2019-01-26T10:50:41.348Z,2.6
2019-01-26T10:51:48.553Z,2.6
2019-01-26T10:52:55.766Z,2.6
2019-01-26T10:54:02.966Z,2.6
2019-01-26T10:55:09.924Z,2.5
2019-01-26T10:56:17.131Z,2.5
2019-01-26T10:57:24.065Z,2.6
2019-01-26T10:58:31.270Z,2.6
2019-01-26T10:59:38.494Z,2.6
2019-01-26T11:00:45.701Z,2.6
2019-01-26T11:01:52.918Z,2.6
2019-01-26T11:03:00.126Z,2.6
2019-01-26T11:04:07.356Z,2.6
2019-01-26T11:05:14.565Z,2.7
2019-01-26T11:06:22.005Z,2.7
2019-01-26T11:07:29.210Z,2.7
2019-01-26T11:08:36.784Z,2.7
2019-01-26T11:09:43.718Z,2.7
2019-01-26T11:10:50.666Z,2.7
2019-01-26T11:11:57.869Z,2.7
2019-01-26T11:13:05.085Z,2.7
2019-01-26T11:14:12.296Z,2.7
2019-01-26T11:15:19.507Z,2.6
2019-01-26T11:16:26.731Z,2.7
2019-01-26T11:17:33.657Z,2.7
2019-01-26T11:18:40.329Z,2.7
2019-01-26T11:19:47.534Z,2.7
2019-01-26T11:20:54.467Z,2.7
2019-01-26T11:22:01.690Z,2.7
2019-01-26T11:23:08.632Z,2.7
2019-01-26T11:24:15.870Z,2.7
2019-01-26T11:25:23.062Z,2.7
2019-01-26T11:26:30.329Z,2.7
2019-01-26T11:27:37.529Z,2.7
2019-01-26T11:28:44.752Z,2.8
2019-01-26T11:29:51.962Z,2.8
2019-01-26T11:30:58.904Z,2.8
2019-01-26T11:32:06.127Z,2.9
2019-01-26T11:33:13.331Z,2.9
2019-01-26T11:34:20.556Z,2.9
2019-01-26T11:35:27.500Z,2.9
2019-01-26T11:36:34.739Z,2.9
2019-01-26T11:37:41.955Z,2.9
2019-01-26T11:38:49.198Z,2.9
2019-01-26T11:39:56.129Z,2.9
2019-01-26T11:41:03.062Z,3
2019-01-26T11:42:10.011Z,3
2019-01-26T11:43:16.973Z,3
2019-01-26T11:44:24.198Z,3
2019-01-26T11:45:31.394Z,3.1
2019-01-26T11:46:38.608Z,3.1
2019-01-26T11:47:45.815Z,3.1
2019-01-26T11:48:53.023Z,3.1
2019-01-26T11:50:00.236Z,3.1
2019-01-26T11:51:07.456Z,3.1
2019-01-26T11:52:14.415Z,3.2
2019-01-26T11:53:21.638Z,3.2
2019-01-26T11:54:28.851Z,3.3
2019-01-26T11:55:35.795Z,3.3
2019-01-26T11:56:43.000Z,3.3
2019-01-26T11:57:50.205Z,3.3
2019-01-26T11:58:57.408Z,3.3
2019-01-26T12:00:04.624Z,3.3
2019-01-26T12:01:11.569Z,3.3
2019-01-26T12:02:18.781Z,3.3
2019-01-26T12:03:26.023Z,3.3
2019-01-26T12:04:33.240Z,3.3
2019-01-26T12:05:40.447Z,3.3
2019-01-26T12:06:47.648Z,3.3
2019-01-26T12:07:54.861Z,3.3
2019-01-26T12:09:02.068Z,3.2
2019-01-26T12:10:09.002Z,3.2
2019-01-26T12:11:16.208Z,3.2
2019-01-26T12:12:23.174Z,3.2
2019-01-26T12:13:30.398Z,3.2
2019-01-26T12:14:37.621Z,3.2
2019-01-26T12:15:44.849Z,3.2
2019-01-26T12:16:52.067Z,3.2
2019-01-26T12:17:59.274Z,3.2
2019-01-26T12:19:06.492Z,3.2
2019-01-26T12:20:13.699Z,3.2
2019-01-26T12:21:20.910Z,3.3
2019-01-26T12:22:28.132Z,3.3
2019-01-26T12:23:35.075Z,3.3
2019-01-26T12:24:41.999Z,3.3
2019-01-26T12:25:48.939Z,3.3
2019-01-26T12:26:56.151Z,3.3
2019-01-26T12:28:03.108Z,3.3
2019-01-26T12:29:10.314Z,3.3
2019-01-26T12:30:17.517Z,3.3
2019-01-26T12:31:24.723Z,3.3
2019-01-26T12:32:33.066Z,3.3
2019-01-26T12:33:39.994Z,3.3
2019-01-26T12:34:47.220Z,3.3
2019-01-26T12:35:54.433Z,3.4
2019-01-26T12:37:01.635Z,3.4
2019-01-26T12:38:08.837Z,3.4
2019-01-26T12:39:15.770Z,3.4
2019-01-26T12:40:22.972Z,3.4
2019-01-26T12:41:30.191Z,3.4
2019-01-26T12:42:37.398Z,3.4
2019-01-26T12:43:44.606Z,3.4
2019-01-26T12:44:51.550Z,3.5
2019-01-26T12:45:58.773Z,3.5
2019-01-26T12:47:05.978Z,3.4
2019-01-26T12:48:12.908Z,3.5
2019-01-26T12:49:19.840Z,3.5
2019-01-26T12:50:27.053Z,3.5
2019-01-26T12:51:33.981Z,3.5
2019-01-26T12:52:40.902Z,3.5
2019-01-26T12:53:48.115Z,3.5
2019-01-26T12:54:55.321Z,3.5
2019-01-26T12:56:02.524Z,3.5
2019-01-26T12:57:09.466Z,3.5
2019-01-26T12:58:16.401Z,3.5
2019-01-26T12:59:23.631Z,3.5
2019-01-26T13:00:30.847Z,3.5
2019-01-26T13:01:38.047Z,3.5
2019-01-26T13:02:45.257Z,3.6
2019-01-26T13:03:52.468Z,3.6
2019-01-26T13:04:59.677Z,3.6
2019-01-26T13:06:06.921Z,3.6
2019-01-26T13:07:14.110Z,3.7
2019-01-26T13:08:21.319Z,3.7
2019-01-26T13:09:28.250Z,3.7
2019-01-26T13:10:35.176Z,3.7
2019-01-26T13:11:42.381Z,3.7
2019-01-26T13:12:49.591Z,3.7
2019-01-26T13:13:56.806Z,3.7
2019-01-26T13:15:04.011Z,3.8
2019-01-26T13:16:11.219Z,3.8
2019-01-26T13:17:20.016Z,3.8
2019-01-26T13:18:27.235Z,3.8
2019-01-26T13:19:37.600Z,3.8
2019-01-26T13:20:44.804Z,3.8
2019-01-26T13:21:51.732Z,3.8
2019-01-26T13:22:58.949Z,3.8
2019-01-26T13:24:06.174Z,3.8
2019-01-26T13:25:13.390Z,3.8
2019-01-26T13:26:20.594Z,3.9
2019-01-26T13:27:27.806Z,3.8
2019-01-26T13:28:34.739Z,3.8
2019-01-26T13:29:41.957Z,3.8
2019-01-26T13:30:49.184Z,3.8
2019-01-26T13:31:56.381Z,3.8
2019-01-26T13:33:03.600Z,3.8
2019-01-26T13:34:11.023Z,3.8
2019-01-26T13:35:18.248Z,3.8
2019-01-26T13:36:25.452Z,3.8
2019-01-26T13:37:32.655Z,3.8
2019-01-26T13:38:39.867Z,3.8
2019-01-26T13:39:47.083Z,3.8
2019-01-26T13:40:54.299Z,3.8
2019-01-26T13:42:01.499Z,3.8
2019-01-26T13:43:08.706Z,3.8
2019-01-26T13:44:15.932Z,3.8
2019-01-26T13:45:23.141Z,3.8
2019-01-26T13:46:30.071Z,3.8
2019-01-26T13:47:38.441Z,3.8
2019-01-26T13:48:45.643Z,3.8
2019-01-26T13:49:52.862Z,3.8
2019-01-26T13:51:00.067Z,3.8
2019-01-26T13:52:07.281Z,3.8
2019-01-26T13:53:14.481Z,3.8
2019-01-26T13:54:21.416Z,3.8
2019-01-26T13:55:28.628Z,3.8
2019-01-26T13:56:35.839Z,3.8
2019-01-26T13:57:42.769Z,3.9
2019-01-26T13:58:50.140Z,3.9
2019-01-26T13:59:57.359Z,3.9
2019-01-26T14:01:04.567Z,3.8
2019-01-26T14:02:11.514Z,3.9
2019-01-26T14:03:18.192Z,3.9
2019-01-26T14:04:25.415Z,3.9
2019-01-26T14:05:32.644Z,3.9
2019-01-26T14:06:39.845Z,3.9
2019-01-26T14:07:46.775Z,3.9
2019-01-26T14:08:53.708Z,3.9
2019-01-26T14:10:00.930Z,3.9
2019-01-26T14:11:08.198Z,3.9
2019-01-26T14:12:15.130Z,3.9
2019-01-26T14:13:22.064Z,3.9
2019-01-26T14:14:29.007Z,3.9
2019-01-26T14:15:36.243Z,3.9
2019-01-26T14:16:43.179Z,3.9
2019-01-26T14:17:50.400Z,3.9
2019-01-26T14:18:57.353Z,3.9
2019-01-26T14:20:04.568Z,4
2019-01-26T14:21:11.501Z,3.9
2019-01-26T14:22:18.712Z,4
2019-01-26T14:23:25.649Z,3.9
2019-01-26T14:24:32.861Z,4
2019-01-26T14:25:39.536Z,4
2019-01-26T14:26:50.411Z,4
2019-01-26T14:27:57.632Z,3.9
2019-01-26T14:29:04.580Z,3.9
2019-01-26T14:30:12.208Z,3.9
2019-01-26T14:31:19.415Z,3.9
2019-01-26T14:32:26.629Z,3.9
2019-01-26T14:33:33.852Z,3.9
2019-01-26T14:34:40.831Z,3.9
2019-01-26T14:35:48.043Z,3.9
2019-01-26T14:36:54.988Z,3.9
2019-01-26T14:38:02.211Z,3.9
2019-01-26T14:39:09.586Z,3.9
2019-01-26T14:40:16.291Z,3.9
2019-01-26T14:41:22.978Z,3.9
2019-01-26T14:42:30.198Z,3.9
2019-01-26T14:43:37.429Z,3.9
2019-01-26T14:44:44.640Z,3.8
2019-01-26T14:45:51.856Z,3.8
2019-01-26T14:46:59.060Z,3.8
2019-01-26T14:48:06.270Z,3.8
2019-01-26T14:49:13.480Z,3.8
2019-01-26T14:50:20.690Z,3.8
2019-01-26T14:51:27.632Z,3.8
2019-01-26T14:52:34.843Z,3.8
2019-01-26T14:53:48.253Z,3.8
2019-01-26T14:54:55.745Z,3.8
2019-01-26T14:56:02.693Z,3.8
2019-01-26T14:57:09.919Z,3.8
2019-01-26T14:58:16.873Z,3.8
2019-01-26T14:59:24.304Z,3.8
2019-01-26T15:00:31.518Z,3.8
2019-01-26T15:01:38.464Z,3.8
2019-01-26T15:02:45.425Z,3.8
2019-01-26T15:03:52.380Z,3.7
2019-01-26T15:04:59.614Z,3.8
2019-01-26T15:06:06.929Z,3.7
2019-01-26T15:07:13.868Z,3.7
2019-01-26T15:08:21.074Z,3.7
2019-01-26T15:09:28.293Z,3.7
2019-01-26T15:10:35.509Z,3.7
2019-01-26T15:11:42.730Z,3.7
2019-01-26T15:12:49.958Z,3.7
2019-01-26T15:13:57.178Z,3.7
2019-01-26T15:15:04.604Z,3.7
2019-01-26T15:16:11.841Z,3.7
2019-01-26T15:17:19.287Z,3.6
2019-01-26T15:18:26.513Z,3.7
2019-01-26T15:19:33.733Z,3.7
2019-01-26T15:20:40.944Z,3.7
2019-01-26T15:21:47.893Z,3.7